Weather observations for the past three days for
Abilene, Dyess Air Force Base
| Date | Time (cdt) | Wind (mph) | Vis. (mi.) | Weather | Sky Cond. | Temperature (ºF) | Relative Humidity | Wind Chill (°F) | Heat Index (°F) | Pressure | Precipitation (in) | ||||||
|---|---|---|---|---|---|---|---|---|---|---|---|---|---|---|---|---|---|
| Air | Dwpt | 6 hour | altimeter (in) | sea level (mb) | 1 hr | 3 hr | 6 hr | ||||||||||
| Max. | Min. | ||||||||||||||||
| 03 | 09:55 | SW 15 G 22 | 10.00 | Fair | CLR | 92.7 | 61.7 | 36% | 93 | 29.89 | 1008.9 | ||||||
| 03 | 08:55 | SW 10 | 10.00 | Fair | CLR | 86.9 | 63 | 45% | 88 | 29.9 | 1009.3 | ||||||
| 03 | 07:55 | SW 3 | 10.00 | Fair | CLR | 77.7 | 63.1 | 61% | 79 | 29.91 | 1009.7 | ||||||
| 03 | 06:55 | Calm | 10.00 | Fair | CLR | 76.3 | 64.4 | 85.8 | 74.5 | 67% | 78 | 29.9 | 1009.4 | ||||
| 03 | 05:55 | S 7 | 10.00 | Fair | CLR | 77.9 | 64.8 | 64% | 80 | 29.9 | 1009.3 | ||||||
| 03 | 04:55 | S 8 | 10.00 | Fair | CLR | 78.1 | 64.4 | 63% | 80 | 29.89 | 1009.0 | ||||||
| 03 | 03:55 | S 10 | 10.00 | Fair | CLR | 79.7 | 63.5 | 58% | 81 | 29.89 | 1008.9 | ||||||
| 03 | 02:55 | S 8 | 10.00 | Fair | CLR | 81.1 | 62.4 | 53% | 82 | 29.91 | 1009.6 | ||||||
| 03 | 01:55 | S 14 | 10.00 | Fair | CLR | 84.6 | 62.6 | 48% | 85 | 29.91 | 1009.6 | ||||||
| 03 | 00:55 | SE 8 | 10.00 | Fair | CLR | 86 | 61.5 | 99.9 | 85.6 | 44% | 86 | 29.91 | 1009.6 | ||||
| 02 | 23:55 | SE 8 | 10.00 | Fair | CLR | 88 | 61.3 | 41% | 88 | 29.91 | 1009.6 | ||||||
| 02 | 22:55 | SE 13 | 10.00 | Fair | CLR | 90 | 60.1 | 37% | 90 | 29.91 | 1009.6 | ||||||
| 02 | 21:55 | SE 10 | 10.00 | Fair | CLR | 91.9 | 59.5 | 34% | 91 | 29.9 | 1009.3 | ||||||
| 02 | 20:55 | SE 9 | 10.00 | Fair | CLR | 94.3 | 57 | 29% | 93 | 29.88 | 1008.6 | ||||||
| 02 | 19:55 | SE 9 | 10.00 | Fair | CLR | 97 | 56.3 | 26% | 96 | 29.86 | 1008.0 | ||||||
| 02 | 18:55 | E 9 | 10.00 | Light Rain | SCT110 | 100 | 55.6 | 102 | 96.3 | 23% | 99 | 29.86 | 1008.0 | ||||
| 02 | 17:55 | SE 5 | 10.00 | Fair | CLR | 100.4 | 53.2 | 21% | 98 | 29.86 | 1007.9 | ||||||
| 02 | 16:55 | SE 7 | 10.00 | Fair | CLR | 101.5 | 52.9 | 20% | 99 | 29.87 | 1008.2 | ||||||
| 02 | 15:55 | S 7 | 10.00 | Fair | CLR | 100.9 | 52.3 | 20% | 99 | 29.89 | 1009.0 | ||||||
| 02 | 14:55 | S 3 | 10.00 | Light Rain | FEW110 FEW230 | 101.1 | 54 | 21% | 99 | 29.92 | 1010.0 | ||||||
| 02 | 13:55 | SE 6 | 10.00 | A Few Clouds | FEW110 | 97.3 | 55.6 | 25% | 96 | 29.95 | 1011.0 | ||||||
| 02 | 12:55 | Calm | 10.00 | Partly Cloudy | SCT080 | 95.9 | 57.6 | 97.2 | 76.1 | 28% | 95 | 29.98 | 1012.0 | ||||
| 02 | 11:55 | Calm | 10.00 | Fair | CLR | 95.7 | 58.3 | 29% | 95 | 30 | 1012.7 | ||||||
| 02 | 10:55 | SW 12 G 17 | 10.00 | Fair | CLR | 94.3 | 60.6 | 33% | 94 | 30.01 | 1013.0 | ||||||
| 02 | 09:55 | SW 15 | 10.00 | Fair | CLR | 90.1 | 62.4 | 40% | 91 | 30 | 1012.7 | ||||||
| 02 | 08:55 | SW 9 | 10.00 | Fair | CLR | 84.4 | 63.1 | 49% | 85 | 30.01 | 1013.1 | ||||||
| 02 | 07:55 | S 7 | 10.00 | Fair | CLR | 80.4 | 63.7 | 57% | 82 | 30 | 1012.8 | ||||||
| 02 | 06:55 | S 7 | 10.00 | Fair | CLR | 75.9 | 62.8 | 83.8 | 75.2 | 64% | 78 | 29.99 | 1012.5 | ||||
| 02 | 05:55 | S 7 | 10.00 | NULL | NULL | 77 | 62.4 | 61% | 79 | 29.99 | 1012.4 | ||||||
| 02 | 04:55 | S 8 | 10.00 | NULL | NULL | 78.8 | 61.7 | 56% | 80 | 29.98 | 1012.1 | ||||||
| 02 | 03:55 | S 13 | 10.00 | Fair | CLR | 80.1 | 61.3 | 53% | 81 | 29.99 | 1012.4 | ||||||
| 02 | 02:55 | S 8 | 10.00 | Fair | CLR | 79.2 | 59.9 | 52% | 80 | 29.99 | 1012.4 | ||||||
| 02 | 01:55 | S 8 | 10.00 | Fair | CLR | 81.5 | 59.9 | 48% | 82 | 29.99 | 1012.4 | ||||||
| 02 | 00:55 | S 9 | 10.00 | Fair | CLR | 84 | 58.5 | 97.5 | 79.9 | 42% | 84 | 29.98 | 1012.0 | ||||
| 01 | 23:55 | SE 12 | 10.00 | Fair | CLR | 85.6 | 57.7 | 39% | 85 | 29.98 | 1012.0 | ||||||
| 01 | 22:55 | SE 10 | 10.00 | Fair | CLR | 87.1 | 56.8 | 36% | 86 | 29.98 | 1012.0 | ||||||
| 01 | 21:55 | SE 10 | 10.00 | Fair | CLR | 89.1 | 54.5 | 31% | 87 | 29.95 | 1011.1 | ||||||
| 01 | 20:55 | SE 8 | 10.00 | Fair | CLR | 91.8 | 52 | 26% | 89 | 29.92 | 1010.1 | ||||||
| 01 | 19:55 | SE 12 | 10.00 | Fair | CLR | 94.8 | 51.3 | 23% | 92 | 29.91 | 1009.7 | ||||||
| 01 | 18:55 | SE 9 | 10.00 | Fair | CLR | 97.7 | 49.8 | 100.8 | 95.4 | 20% | 95 | 29.91 | 1009.7 | ||||
| 01 | 17:55 | SE 8 | 10.00 | A Few Clouds | FEW100 | 99 | 50.9 | 20% | 96 | 29.91 | 1009.7 | ||||||
| 01 | 16:55 | E 8 | 10.00 | Fair | CLR | 98.4 | 52.9 | 22% | 96 | 29.92 | 1010.0 | ||||||
| 01 | 15:55 | S 9 | 10.00 | A Few Clouds | FEW090 | 99.5 | 53.8 | 22% | 97 | 29.95 | 1011.0 | ||||||
| 01 | 14:55 | SE 9 G 28 | 10.00 | Mostly Cloudy | BKN090 | 98.8 | 54.5 | 23% | 97 | 29.98 | 1012.0 | ||||||
| 01 | 13:55 | E 8 | 10.00 | Partly Cloudy | SCT090 | 96.8 | 54 | 24% | 95 | 29.99 | 1012.4 | ||||||
| 01 | 12:55 | SE 15 G 22 | 10.00 | A Few Clouds | FEW075 | 97.2 | 56.5 | 97.2 | 77 | 26% | 96 | 30.02 | 1013.4 | ||||
| 01 | 11:55 | S 16 | 10.00 | Fair | CLR | 93.2 | 60.6 | 34% | 93 | 30.03 | 1013.8 | ||||||
| 01 | 10:55 | S 16 | 10.00 | Fair | CLR | 90.7 | 63 | 40% | 92 | 30.04 | 1014.1 | ||||||
| 01 | 09:55 | S 12 | 10.00 | Fair | CLR | 87.4 | 62.8 | 44% | 88 | 30.04 | 1014.1 | ||||||
| 01 | 08:55 | S 9 | 10.00 | Fair | CLR | 81.9 | 63 | 53% | 83 | 30.05 | 1014.5 | ||||||
| 01 | 07:55 | S 14 | 10.00 | Fair | CLR | 78.1 | 63 | 60% | 80 | 30.04 | 1014.2 | ||||||
| 01 | 06:55 | SE 13 | 10.00 | A Few Clouds | FEW100 | 77.4 | 62.8 | 81.7 | 77.4 | 61% | 79 | 30.02 | 1013.5 | ||||
| 01 | 05:55 | S 10 | 10.00 | A Few Clouds | FEW100 | 78.6 | 62.6 | 58% | 80 | 30.01 | 1013.1 | ||||||
| 01 | 04:55 | S 12 | 10.00 | Fair | CLR | 78.8 | 61.2 | 55% | 80 | 30 | 1012.7 | ||||||
| 01 | 03:55 | S 15 | 10.00 | Fair | CLR | 79.7 | 59.4 | 50% | 81 | 30 | 1012.8 | ||||||
| 01 | 02:55 | S 9 | 10.00 | Fair | CLR | 79.7 | 58.8 | 49% | 80 | 30 | 1012.7 | ||||||
| 01 | 01:55 | S 10 | 10.00 | Fair | CLR | 81 | 58.3 | 46% | 81 | 30 | 1012.8 | ||||||
| 01 | 00:55 | S 8 | 10.00 | Fair | CLR | 81.1 | 57.7 | 97.5 | 81.1 | 45% | 81 | 29.99 | 1012.4 | ||||
| 31 | 23:55 | S 12 | 10.00 | Fair | CLR | 85.8 | 57.2 | 38% | 85 | 29.99 | 1012.4 | ||||||
| 31 | 22:55 | S 13 | 10.00 | Fair | CLR | 88.2 | 56.1 | 34% | 87 | 29.98 | 1012.0 | ||||||
| 31 | 21:55 | SE 10 | 10.00 | Fair | CLR | 89.2 | 53.8 | 30% | 87 | 29.95 | 1011.1 | ||||||
| 31 | 20:55 | SE 13 | 10.00 | Fair | CLR | 91.6 | 52.9 | 27% | 89 | 29.93 | 1010.4 | ||||||
| 31 | 19:55 | SE 15 | 10.00 | Fair | CLR | 94.3 | 51.8 | 24% | 91 | 29.92 | 1010.0 | ||||||
| 31 | 17:55 | SE 6 | 10.00 | Partly Cloudy | SCT100 | 99.5 | 51.3 | 20% | 97 | 29.91 | 1009.7 | ||||||
| 31 | 16:55 | SE 9 | 10.00 | Mostly Cloudy | BKN095 | 99 | 52.2 | 21% | 96 | 29.93 | 1010.3 | ||||||
| 31 | 15:55 | SE 13 G 18 | 10.00 | A Few Clouds | FEW090 | 96.1 | 54.5 | 25% | 94 | 29.95 | 1011.1 | ||||||
| 31 | 14:55 | S 12 | 10.00 | Mostly Cloudy | BKN090 | 97.7 | 55.9 | 25% | 96 | 29.97 | 1011.7 | ||||||
| 31 | 13:55 | SE 8 | 10.00 | A Few Clouds | FEW080 | 94.8 | 57.6 | 29% | 94 | 29.99 | 1012.4 | ||||||
| 31 | 12:55 | S 6 | 10.00 | Partly Cloudy | SCT070 | 93.7 | 58.5 | 95.2 | 78.1 | 31% | 93 | 30.02 | 1013.5 | ||||
| 31 | 11:55 | S 13 | 10.00 | Fair | CLR | 93.7 | 62.6 | 36% | 95 | 30.03 | 1013.8 | ||||||
| 31 | 10:55 | S 14 | 10.00 | Fair | CLR | 90.3 | 64 | 42% | 92 | 30.02 | 1013.4 | ||||||
| Date | Time (cdt) | Wind (mph) | Vis. (mi.) | Weather | Sky Cond. | Air | Dwpt | Max. | Min. | Relative Humidity | Wind Chill (°F) | Heat Index (°F) | altimeter (in) | sea level (mb) | 1 hr | 3 hr | 6 hr |
| 6 hour | |||||||||||||||||
| Temperature (ºF) | Pressure | Precipitation (in) | |||||||||||||||